Time;durP1;ratioP1;P1;durP2;ratioP2;P2;SDS_P1;SDS_P2;PMS_P1;PMS_P2;Temp;Humidity;BMP_temperature;BMP_pressure;BME280_temperature;BME280_humidity;BME280_pressure;Samples;Min_cycle;Max_cycle;Signal;HPM_P1;HPM_P2
2022/03/08 00:02:09;;;;;;;1999.90;999.90;;;3.10;99.90;;;;;;5078174;28;20501;-77
2022/03/08 00:04:35;;;;;;;1999.90;999.90;;;3.00;99.90;;;;;;5077854;28;20715;-77
2022/03/08 00:07:02;;;;;;;1999.90;999.90;;;3.00;99.90;;;;;;5078068;28;20193;-77
2022/03/08 00:09:28;;;;;;;1999.90;999.90;;;3.00;99.90;;;;;;5078088;28;20178;-77
2022/03/08 00:11:54;;;;;;;1999.90;999.90;;;2.90;99.90;;;;;;5078087;28;20222;-77
2022/03/08 00:14:19;;;;;;;1999.90;999.90;;;3.00;99.90;;;;;;5077725;28;20179;-77
2022/03/08 00:16:46;;;;;;;1999.90;999.90;;;2.90;99.90;;;;;;5077768;28;20199;-77
2022/03/08 00:19:11;;;;;;;1999.90;999.90;;;2.90;99.90;;;;;;5077957;28;20185;-77
2022/03/08 00:21:38;;;;;;;1999.90;999.90;;;2.90;99.90;;;;;;5078065;28;20249;-77
2022/03/08 00:24:04;;;;;;;1999.90;999.90;;;2.90;99.90;;;;;;5077725;28;20238;-77
2022/03/08 00:26:30;;;;;;;1999.90;999.90;;;2.90;99.90;;;;;;5077886;28;20690;-77
2022/03/08 00:28:55;;;;;;;1999.90;999.90;;;2.90;99.90;;;;;;5077923;28;20229;-77
2022/03/08 00:31:21;;;;;;;1999.90;999.90;;;2.90;99.90;;;;;;5075264;28;20178;-77
2022/03/08 00:33:47;;;;;;;1999.90;999.90;;;2.90;99.90;;;;;;5074581;28;20232;-77
2022/03/08 00:36:12;;;;;;;1999.90;999.90;;;2.90;99.90;;;;;;5078430;28;20195;-76
2022/03/08 00:38:38;;;;;;;1999.90;999.90;;;2.90;99.90;;;;;;5081256;28;20167;-77
2022/03/08 00:41:04;;;;;;;1999.90;999.90;;;2.90;99.90;;;;;;5078552;28;20167;-77
2022/03/08 00:43:29;;;;;;;1999.90;999.90;;;2.90;99.90;;;;;;5075115;28;20163;-77
2022/03/08 00:45:55;;;;;;;1999.90;999.90;;;2.90;99.90;;;;;;5074790;28;20591;-77
2022/03/08 00:48:21;;;;;;;1999.90;999.90;;;2.90;99.90;;;;;;5075035;28;20186;-77
2022/03/08 00:50:47;;;;;;;1999.90;999.90;;;2.90;99.90;;;;;;5075178;28;20427;-77
2022/03/08 00:53:13;;;;;;;1999.90;999.90;;;2.80;99.90;;;;;;5075256;28;20702;-77
2022/03/08 00:55:39;;;;;;;1999.90;999.90;;;2.70;99.90;;;;;;5074596;28;20659;-77
2022/03/08 00:58:05;;;;;;;1999.90;999.90;;;2.80;99.90;;;;;;5074845;28;20922;-77
2022/03/08 01:00:33;;;;;;;1999.90;999.90;;;2.70;99.90;;;;;;5074759;28;20168;-77
2022/03/08 01:02:59;;;;;;;1999.90;999.90;;;2.70;99.90;;;;;;5074943;28;20401;-77
2022/03/08 01:05:24;;;;;;;1999.90;999.90;;;2.70;99.90;;;;;;5074834;28;20179;-77
2022/03/08 01:07:50;;;;;;;1999.90;999.90;;;2.70;99.90;;;;;;5074899;28;20515;-77
2022/03/08 01:10:19;;;;;;;1999.90;999.90;;;2.60;99.90;;;;;;5075035;28;20167;-77
2022/03/08 01:12:45;;;;;;;1999.90;999.90;;;2.60;99.90;;;;;;5074816;28;20175;-77
2022/03/08 01:15:12;;;;;;;1999.90;999.90;;;2.60;99.90;;;;;;5074631;28;20171;-77
2022/03/08 01:17:38;;;;;;;1999.90;999.90;;;2.60;99.90;;;;;;5074500;28;20583;-77
2022/03/08 01:20:08;;;;;;;1999.90;999.90;;;2.50;99.90;;;;;;5074878;28;20167;-77
2022/03/08 01:22:34;;;;;;;1999.90;999.90;;;2.50;99.90;;;;;;5074465;28;20454;-77
2022/03/08 01:25:01;;;;;;;1999.90;999.90;;;2.60;99.90;;;;;;5074433;28;20602;-77
2022/03/08 01:27:26;;;;;;;1999.90;999.90;;;2.60;99.90;;;;;;5074522;28;20457;-77
2022/03/08 01:29:52;;;;;;;1999.90;999.90;;;2.60;99.90;;;;;;5074432;28;20168;-77
2022/03/08 01:32:18;;;;;;;1999.90;999.90;;;2.50;99.90;;;;;;5074812;28;20703;-77
2022/03/08 01:34:43;;;;;;;1999.90;999.90;;;2.50;99.90;;;;;;5074315;28;20274;-77
2022/03/08 01:37:10;;;;;;;1999.90;999.90;;;2.50;99.90;;;;;;5074526;28;20203;-77
2022/03/08 01:39:36;;;;;;;1999.90;999.90;;;2.50;99.90;;;;;;5074608;28;20667;-77
2022/03/08 01:42:13;;;;;;;1999.90;999.90;;;2.50;99.90;;;;;;5074454;28;20210;-77
2022/03/08 01:44:41;;;;;;;1999.90;999.90;;;2.40;99.90;;;;;;5074239;28;20170;-77
2022/03/08 01:47:07;;;;;;;1999.90;999.90;;;2.40;99.90;;;;;;5074376;28;20194;-77
2022/03/08 01:49:32;;;;;;;1999.90;999.90;;;2.40;99.90;;;;;;5074266;28;20250;-77
2022/03/08 01:51:59;;;;;;;1999.90;999.90;;;2.40;99.90;;;;;;5074131;28;20264;-77
2022/03/08 01:54:25;;;;;;;1999.90;999.90;;;2.40;99.90;;;;;;5073829;28;20163;-77
2022/03/08 01:56:50;;;;;;;1999.90;999.90;;;2.30;99.90;;;;;;5073743;28;20687;-77
2022/03/08 01:59:16;;;;;;;1999.90;999.90;;;2.30;99.90;;;;;;5073814;28;20280;-77
2022/03/08 02:01:42;;;;;;;1999.90;999.90;;;2.30;99.90;;;;;;5073654;28;20170;-77
2022/03/08 02:04:07;;;;;;;1999.90;999.90;;;2.30;99.90;;;;;;5072656;28;20243;-77
2022/03/08 02:06:33;;;;;;;1999.90;999.90;;;2.20;99.90;;;;;;5072881;28;20551;-77
2022/03/08 02:08:59;;;;;;;1999.90;999.90;;;2.30;99.90;;;;;;5072836;28;20163;-77
2022/03/08 02:11:24;;;;;;;1999.90;999.90;;;2.30;99.90;;;;;;5077697;28;20167;-77
2022/03/08 02:13:50;;;;;;;1999.90;999.90;;;2.30;99.90;;;;;;5079949;28;20527;-77
2022/03/08 02:16:16;;;;;;;1999.90;999.90;;;2.30;99.90;;;;;;5077522;28;20441;-77
2022/03/08 02:18:41;;;;;;;1999.90;999.90;;;2.20;99.90;;;;;;5073975;28;20163;-77
2022/03/08 02:21:08;;;;;;;1999.90;999.90;;;2.20;99.90;;;;;;5073613;28;20245;-77
2022/03/08 02:23:34;;;;;;;1999.90;999.90;;;2.20;99.90;;;;;;5073480;28;20203;-77
2022/03/08 02:26:01;;;;;;;1999.90;999.90;;;2.20;99.90;;;;;;5073136;28;20186;-77
2022/03/08 02:28:30;;;;;;;1999.90;999.90;;;2.20;99.90;;;;;;5073395;28;20186;-77
2022/03/08 02:30:56;;;;;;;1999.90;999.90;;;2.10;99.90;;;;;;5073254;28;20167;-77
2022/03/08 02:33:22;;;;;;;1999.90;999.90;;;2.10;99.90;;;;;;5088076;28;20217;-77
2022/03/08 02:35:47;;;;;;;1999.90;999.90;;;2.00;99.90;;;;;;5071987;28;20448;-77
2022/03/08 02:38:13;;;;;;;1999.90;999.90;;;1.90;99.90;;;;;;5072233;28;20190;-77
2022/03/08 02:40:41;;;;;;;1999.90;999.90;;;1.90;99.90;;;;;;5072280;28;20171;-76
2022/03/08 02:43:09;;;;;;;1999.90;999.90;;;1.80;99.90;;;;;;5072313;28;20218;-77
2022/03/08 02:45:35;;;;;;;1999.90;999.90;;;1.80;99.90;;;;;;5071938;28;20170;-77
2022/03/08 02:48:01;;;;;;;1999.90;999.90;;;1.70;99.90;;;;;;5071797;28;20202;-77
2022/03/08 02:50:27;;;;;;;1999.90;999.90;;;1.70;99.90;;;;;;5072072;28;20412;-77
2022/03/08 02:52:55;;;;;;;1999.90;999.90;;;1.70;99.90;;;;;;5072108;28;20170;-77
2022/03/08 02:55:23;;;;;;;1999.90;999.90;;;1.60;99.90;;;;;;5071231;28;20171;-77
2022/03/08 02:57:50;;;;;;;1999.90;999.90;;;1.70;99.90;;;;;;5087569;28;20214;-77
2022/03/08 03:00:19;;;;;;;1999.90;999.90;;;1.70;99.90;;;;;;5072079;28;20163;-77
2022/03/08 03:02:45;;;;;;;1999.90;999.90;;;1.60;99.90;;;;;;5072035;28;20175;-77
2022/03/08 03:05:11;;;;;;;1999.90;999.90;;;1.60;99.90;;;;;;5071554;28;20173;-77
2022/03/08 03:07:38;;;;;;;1999.90;999.90;;;1.60;99.90;;;;;;5072035;28;20191;-77
2022/03/08 03:10:12;;;;;;;1999.90;999.90;;;1.60;99.90;;;;;;5072007;28;20649;-77
2022/03/08 03:12:38;;;;;;;1999.90;999.90;;;1.70;99.90;;;;;;5074803;28;20197;-77
2022/03/08 03:15:06;;;;;;;1999.90;999.90;;;1.60;99.90;;;;;;5078139;28;20171;-77
2022/03/08 03:17:32;;;;;;;1999.90;999.90;;;1.50;99.90;;;;;;5078183;28;20206;-77
2022/03/08 03:19:57;;;;;;;1999.90;999.90;;;1.50;99.90;;;;;;5078366;28;20648;-76
2022/03/08 03:22:23;;;;;;;1999.90;999.90;;;1.50;99.90;;;;;;5079211;28;20159;-77
2022/03/08 03:24:48;;;;;;;1999.90;999.90;;;1.50;99.90;;;;;;5080448;28;20244;-76
2022/03/08 03:27:14;;;;;;;1999.90;999.90;;;1.50;99.90;;;;;;5080071;28;20190;-76
2022/03/08 03:29:40;;;;;;;1999.90;999.90;;;1.50;99.90;;;;;;5080146;28;20667;-76
2022/03/08 03:32:06;;;;;;;1999.90;999.90;;;1.50;99.90;;;;;;5080601;28;20163;-77
2022/03/08 03:34:32;;;;;;;1999.90;999.90;;;1.50;99.90;;;;;;5079914;28;20520;-76
2022/03/08 03:36:57;;;;;;;1999.90;999.90;;;1.40;99.90;;;;;;5079706;28;20270;-77
2022/03/08 03:39:23;;;;;;;1999.90;999.90;;;1.50;99.90;;;;;;5079478;28;20676;-77
2022/03/08 03:41:49;;;;;;;1999.90;999.90;;;1.50;99.90;;;;;;5080485;28;20171;-76
2022/03/08 03:44:14;;;;;;;1999.90;999.90;;;1.40;99.90;;;;;;5079000;28;20163;-77
2022/03/08 03:46:40;;;;;;;1999.90;999.90;;;1.40;99.90;;;;;;5079227;28;20191;-76
2022/03/08 03:49:06;;;;;;;1999.90;999.90;;;1.40;99.90;;;;;;5078766;28;20163;-76
2022/03/08 03:51:32;;;;;;;1999.90;999.90;;;1.50;99.90;;;;;;5079661;28;20529;-76
2022/03/08 03:53:57;;;;;;;1999.90;999.90;;;1.40;99.90;;;;;;5079188;28;20171;-77
2022/03/08 03:56:23;;;;;;;1999.90;999.90;;;1.40;99.90;;;;;;5079041;28;20214;-77
2022/03/08 03:58:48;;;;;;;1999.90;999.90;;;1.40;99.90;;;;;;5079658;28;20170;-76
2022/03/08 04:01:15;;;;;;;1999.90;999.90;;;1.30;99.90;;;;;;5071529;28;20221;-77
2022/03/08 04:03:40;;;;;;;1999.90;999.90;;;1.40;99.90;;;;;;5071467;28;20168;-77
2022/03/08 04:06:07;;;;;;;1999.90;999.90;;;1.40;99.90;;;;;;5071437;28;20645;-77
2022/03/08 04:08:33;;;;;;;1999.90;999.90;;;1.40;99.90;;;;;;5075257;28;20163;-77
2022/03/08 04:10:59;;;;;;;1999.90;999.90;;;1.40;99.90;;;;;;5075130;28;20587;-77
2022/03/08 04:13:24;;;;;;;1999.90;999.90;;;1.40;99.90;;;;;;5075071;28;20408;-77
2022/03/08 04:15:52;;;;;;;1999.90;999.90;;;1.30;99.90;;;;;;5074595;28;20278;-77
2022/03/08 04:18:18;;;;;;;1999.90;999.90;;;1.30;99.90;;;;;;5075241;28;20251;-77
2022/03/08 04:20:44;;;;;;;1999.90;999.90;;;1.40;99.90;;;;;;5074936;28;20206;-77
2022/03/08 04:23:10;;;;;;;1999.90;999.90;;;1.30;99.90;;;;;;5074978;28;20539;-77
2022/03/08 04:25:36;;;;;;;1999.90;999.90;;;1.30;99.90;;;;;;5074627;28;20173;-77
2022/03/08 04:28:03;;;;;;;1999.90;999.90;;;1.30;99.90;;;;;;5074697;28;20178;-77
2022/03/08 04:30:29;;;;;;;1999.90;999.90;;;1.40;99.90;;;;;;5074811;28;20167;-77
2022/03/08 04:32:55;;;;;;;1999.90;999.90;;;1.40;99.90;;;;;;5074691;28;20163;-77
2022/03/08 04:35:21;;;;;;;1999.90;999.90;;;1.40;99.90;;;;;;5074247;28;20177;-77
2022/03/08 04:37:46;;;;;;;1999.90;999.90;;;1.40;99.90;;;;;;5074644;28;20183;-77
2022/03/08 04:40:13;;;;;;;1999.90;999.90;;;1.40;99.90;;;;;;5074653;28;20558;-77
2022/03/08 04:42:40;;;;;;;1999.90;999.90;;;1.40;99.90;;;;;;5074525;28;20401;-77
2022/03/08 04:45:07;;;;;;;1999.90;999.90;;;1.40;99.90;;;;;;5074221;28;20172;-77
2022/03/08 04:47:35;;;;;;;1999.90;999.90;;;1.40;99.90;;;;;;5074363;28;20244;-76
2022/03/08 04:50:05;;;;;;;1999.90;999.90;;;1.40;99.90;;;;;;5074238;28;20262;-77
2022/03/08 04:52:31;;;;;;;1999.90;999.90;;;1.40;99.90;;;;;;5074417;28;20163;-77
2022/03/08 04:54:56;;;;;;;1999.90;999.90;;;1.30;99.90;;;;;;5074073;28;20221;-77
2022/03/08 04:57:23;;;;;;;1999.90;999.90;;;1.30;99.90;;;;;;5074158;28;20199;-77
2022/03/08 04:59:48;;;;;;;1999.90;999.90;;;1.30;99.90;;;;;;5074302;28;20183;-77
2022/03/08 05:02:14;;;;;;;1999.90;999.90;;;1.30;99.90;;;;;;5074525;28;20198;-77
2022/03/08 05:04:40;;;;;;;1999.90;999.90;;;1.20;99.90;;;;;;5074392;28;20160;-77
2022/03/08 05:07:05;;;;;;;1999.90;999.90;;;1.30;99.90;;;;;;5074596;28;20194;-77
2022/03/08 05:09:31;;;;;;;1999.90;999.90;;;1.20;99.90;;;;;;5074775;28;20409;-77
2022/03/08 05:11:58;;;;;;;1999.90;999.90;;;1.30;99.90;;;;;;5074832;28;20260;-77
2022/03/08 05:14:24;;;;;;;1999.90;999.90;;;1.20;99.90;;;;;;5074588;28;20173;-77
2022/03/08 05:16:51;;;;;;;1999.90;999.90;;;1.20;99.90;;;;;;5073804;28;20213;-77
2022/03/08 05:19:16;;;;;;;1999.90;999.90;;;1.20;99.90;;;;;;5074577;28;20166;-77
2022/03/08 05:21:42;;;;;;;1999.90;999.90;;;1.20;99.90;;;;;;5074516;28;20172;-77
2022/03/08 05:24:08;;;;;;;1999.90;999.90;;;1.10;99.90;;;;;;5074318;28;20701;-77
2022/03/08 05:26:34;;;;;;;1999.90;999.90;;;1.20;99.90;;;;;;5074774;28;20183;-77
2022/03/08 05:28:59;;;;;;;1999.90;999.90;;;1.10;99.90;;;;;;5074559;28;20178;-77
2022/03/08 05:31:25;;;;;;;1999.90;999.90;;;1.10;99.90;;;;;;5074509;28;20510;-77
2022/03/08 05:33:50;;;;;;;1999.90;999.90;;;1.20;99.90;;;;;;5074339;28;20171;-77
2022/03/08 05:36:16;;;;;;;1999.90;999.90;;;1.10;99.90;;;;;;5073926;28;20191;-77
2022/03/08 05:38:41;;;;;;;1999.90;999.90;;;1.10;99.90;;;;;;5074367;28;20198;-77
2022/03/08 05:41:07;;;;;;;1999.90;999.90;;;1.10;99.90;;;;;;5074411;28;20190;-77
2022/03/08 05:43:33;;;;;;;1999.90;999.90;;;1.10;99.90;;;;;;5074297;28;20566;-77
2022/03/08 05:45:58;;;;;;;1999.90;999.90;;;1.20;99.90;;;;;;5073923;28;20167;-77
2022/03/08 05:48:24;;;;;;;1999.90;999.90;;;1.10;99.90;;;;;;5074073;28;20277;-77
2022/03/08 05:50:49;;;;;;;1999.90;999.90;;;1.10;99.90;;;;;;5074278;28;20261;-77
2022/03/08 05:53:15;;;;;;;1999.90;999.90;;;1.10;99.90;;;;;;5074059;28;20175;-77
2022/03/08 05:55:42;;;;;;;1999.90;999.90;;;1.10;99.90;;;;;;5074194;28;20178;-77
2022/03/08 05:58:07;;;;;;;1999.90;999.90;;;1.10;99.90;;;;;;5073604;28;20675;-77
2022/03/08 06:00:33;;;;;;;1999.90;999.90;;;1.10;99.90;;;;;;5073875;28;20175;-77
2022/03/08 06:02:59;;;;;;;1999.90;999.90;;;1.10;99.90;;;;;;5073729;28;20177;-77
2022/03/08 06:05:24;;;;;;;1999.90;999.90;;;1.10;99.90;;;;;;5073365;28;20563;-77
2022/03/08 06:07:50;;;;;;;1999.90;999.90;;;1.10;99.90;;;;;;5073628;28;20214;-77
2022/03/08 06:10:15;;;;;;;1999.90;999.90;;;1.10;99.90;;;;;;5073466;28;20865;-77
2022/03/08 06:12:41;;;;;;;1999.90;999.90;;;1.10;99.90;;;;;;5073181;28;20172;-77
2022/03/08 06:15:08;;;;;;;1999.90;999.90;;;1.10;99.90;;;;;;5073133;28;20690;-77
2022/03/08 06:17:34;;;;;;;1999.90;999.90;;;1.10;99.90;;;;;;5072988;28;20461;-77
2022/03/08 06:20:00;;;;;;;1999.90;999.90;;;1.10;99.90;;;;;;5073241;28;20246;-77
2022/03/08 06:22:26;;;;;;;1999.90;999.90;;;1.10;99.90;;;;;;5073168;28;20198;-77
2022/03/08 06:24:51;;;;;;;1999.90;999.90;;;1.20;99.90;;;;;;5072574;28;20458;-77
2022/03/08 06:27:17;;;;;;;1999.90;999.90;;;1.20;99.90;;;;;;5072918;28;20229;-77
2022/03/08 06:29:42;;;;;;;1999.90;999.90;;;1.20;99.90;;;;;;5072323;28;20625;-77
2022/03/08 06:32:08;;;;;;;1999.90;999.90;;;1.30;99.90;;;;;;5072966;28;20167;-77
2022/03/08 06:34:34;;;;;;;1999.90;999.90;;;1.30;99.90;;;;;;5072808;28;20175;-77
2022/03/08 06:36:59;;;;;;;1999.90;999.90;;;1.40;99.90;;;;;;5072751;28;20222;-77
2022/03/08 06:39:25;;;;;;;1999.90;999.90;;;1.40;99.90;;;;;;5072790;28;20166;-77
2022/03/08 06:41:51;;;;;;;1999.90;999.90;;;1.40;99.90;;;;;;5072238;28;20159;-77
2022/03/08 06:44:16;;;;;;;1999.90;999.90;;;1.50;99.90;;;;;;5072031;28;20163;-77
2022/03/08 06:46:44;;;;;;;1999.90;999.90;;;1.60;99.90;;;;;;5072246;28;20240;-77
2022/03/08 06:49:11;;;;;;;1999.90;999.90;;;1.70;99.90;;;;;;5072219;28;20195;-76
2022/03/08 06:51:37;;;;;;;1999.90;999.90;;;1.70;99.90;;;;;;5072216;28;20704;-77
2022/03/08 06:54:05;;;;;;;1999.90;999.90;;;1.70;99.90;;;;;;5071958;28;20250;-77
2022/03/08 06:56:31;;;;;;;1999.90;999.90;;;1.80;99.90;;;;;;5071948;28;20570;-77
2022/03/08 06:58:56;;;;;;;1999.90;999.90;;;1.90;99.90;;;;;;5072168;28;20242;-77
2022/03/08 07:01:22;;;;;;;1999.90;999.90;;;1.90;99.90;;;;;;5072020;28;20398;-77
2022/03/08 07:03:48;;;;;;;1999.90;999.90;;;1.90;99.90;;;;;;5072003;28;20781;-77
2022/03/08 07:06:13;;;;;;;1999.90;999.90;;;2.00;99.90;;;;;;5071939;28;20206;-77
2022/03/08 07:08:39;;;;;;;1999.90;999.90;;;2.10;99.90;;;;;;5073412;28;20167;-77
2022/03/08 07:11:05;;;;;;;1999.90;999.90;;;2.10;99.90;;;;;;5088781;28;20182;-76
2022/03/08 07:13:32;;;;;;;1999.90;999.90;;;2.30;99.90;;;;;;5073084;28;20167;-77
2022/03/08 07:15:57;;;;;;;1999.90;999.90;;;2.30;99.90;;;;;;5072801;28;20671;-77
2022/03/08 07:18:23;;;;;;;1999.90;999.90;;;2.40;99.90;;;;;;5073036;28;20215;-76
2022/03/08 07:20:50;;;;;;;1999.90;999.90;;;2.40;99.90;;;;;;5072919;28;20167;-77
2022/03/08 07:23:15;;;;;;;1999.90;999.90;;;2.40;99.90;;;;;;5073032;28;20764;-77
2022/03/08 07:25:41;;;;;;;1999.90;999.90;;;2.50;99.90;;;;;;5072311;28;20170;-77
2022/03/08 07:28:07;;;;;;;1999.90;999.90;;;2.50;99.90;;;;;;5072603;28;20190;-77
2022/03/08 07:30:32;;;;;;;1999.90;999.90;;;2.60;99.90;;;;;;5073052;28;20168;-76
2022/03/08 07:32:58;;;;;;;1999.90;999.90;;;2.60;99.90;;;;;;5072965;28;20155;-76
2022/03/08 07:35:24;;;;;;;1999.90;999.90;;;2.70;99.90;;;;;;5072685;28;20171;-77
2022/03/08 07:37:50;;;;;;;1999.90;999.90;;;2.80;99.90;;;;;;5073000;28;20222;-77
2022/03/08 07:40:16;;;;;;;1999.90;999.90;;;2.90;99.90;;;;;;5073935;28;20656;-77
2022/03/08 07:42:41;;;;;;;1999.90;999.90;;;3.00;99.90;;;;;;5077036;28;20167;-76
2022/03/08 07:45:08;;;;;;;1999.90;999.90;;;3.10;99.90;;;;;;5077115;28;20186;-77
2022/03/08 07:47:33;;;;;;;1999.90;999.90;;;3.10;99.90;;;;;;5076581;28;20218;-76
2022/03/08 07:49:59;;;;;;;1999.90;999.90;;;3.20;99.90;;;;;;5076670;28;20167;-76
2022/03/08 07:52:24;;;;;;;1999.90;999.90;;;3.20;99.90;;;;;;5076831;28;20660;-76
2022/03/08 07:54:50;;;;;;;1999.90;999.90;;;3.30;99.90;;;;;;5076489;28;20167;-77
2022/03/08 07:57:16;;;;;;;1999.90;999.90;;;3.30;99.90;;;;;;5076349;28;20202;-77
2022/03/08 07:59:41;;;;;;;1999.90;999.90;;;3.30;99.90;;;;;;5076553;28;20192;-76
2022/03/08 08:02:08;;;;;;;1999.90;999.90;;;3.50;99.90;;;;;;5076743;28;20198;-77
2022/03/08 08:04:34;;;;;;;1999.90;999.90;;;3.60;99.90;;;;;;5076699;28;20902;-77
2022/03/08 08:06:59;;;;;;;1999.90;999.90;;;3.70;99.90;;;;;;5076594;28;20470;-76
2022/03/08 08:09:25;;;;;;;1999.90;999.90;;;3.70;99.90;;;;;;5076295;28;20240;-76
2022/03/08 08:11:51;;;;;;;1999.90;999.90;;;3.80;99.90;;;;;;5076312;28;20552;-77
2022/03/08 08:14:17;;;;;;;1999.90;999.90;;;3.90;99.90;;;;;;5076298;28;20209;-76
2022/03/08 08:16:43;;;;;;;1999.90;999.90;;;4.00;99.90;;;;;;5076279;28;20247;-77
2022/03/08 08:19:08;;;;;;;1999.90;999.90;;;4.00;99.90;;;;;;5076233;28;20159;-77
2022/03/08 08:21:34;;;;;;;1999.90;999.90;;;4.10;99.90;;;;;;5075980;28;20163;-77
2022/03/08 08:24:01;;;;;;;1999.90;999.90;;;4.20;99.90;;;;;;5075544;28;20163;-77
2022/03/08 08:26:27;;;;;;;1999.90;999.90;;;4.40;99.90;;;;;;5075827;28;20237;-76
2022/03/08 08:28:53;;;;;;;1999.90;999.90;;;4.50;99.90;;;;;;5076190;28;20922;-77
2022/03/08 08:31:18;;;;;;;1999.90;999.90;;;4.50;99.90;;;;;;5076245;28;20451;-77
2022/03/08 08:33:44;;;;;;;1999.90;999.90;;;4.50;99.90;;;;;;5075915;28;20173;-76
2022/03/08 08:36:09;;;;;;;1999.90;999.90;;;4.60;99.90;;;;;;5075699;28;20195;-77
2022/03/08 08:38:35;;;;;;;1999.90;999.90;;;4.80;99.90;;;;;;5075693;28;20671;-77
2022/03/08 08:41:01;;;;;;;1999.90;999.90;;;4.80;99.90;;;;;;5075756;28;20501;-77
2022/03/08 08:43:26;;;;;;;1999.90;999.90;;;4.90;99.90;;;;;;5075519;28;20167;-76
2022/03/08 08:45:52;;;;;;;1999.90;999.90;;;4.90;99.90;;;;;;5075246;28;20171;-76
2022/03/08 08:48:21;;;;;;;1999.90;999.90;;;5.00;99.90;;;;;;5075946;28;20273;-76
2022/03/08 08:50:47;;;;;;;1999.90;999.90;;;5.10;99.90;;;;;;5075672;28;20468;-76
2022/03/08 08:53:12;;;;;;;1999.90;999.90;;;5.20;99.90;;;;;;5074236;28;20257;-76
2022/03/08 08:55:38;;;;;;;1999.90;999.90;;;5.20;99.90;;;;;;5075139;28;20500;-77
2022/03/08 08:58:07;;;;;;;1999.90;999.90;;;5.20;99.90;;;;;;5075239;28;20183;-77
2022/03/08 09:00:34;;;;;;;1999.90;999.90;;;5.40;99.90;;;;;;5075188;28;20167;-76
2022/03/08 09:03:01;;;;;;;1999.90;999.90;;;5.40;99.90;;;;;;5075225;28;20436;-77
2022/03/08 09:05:27;;;;;;;1999.90;999.90;;;5.60;99.90;;;;;;5074857;28;20412;-77
2022/03/08 09:07:53;;;;;;;1999.90;999.90;;;5.70;99.90;;;;;;5075211;28;20902;-76
2022/03/08 09:10:22;;;;;;;1999.90;999.90;;;5.70;99.90;;;;;;5072930;28;20464;-76
2022/03/08 09:12:51;;;;;;;1999.90;999.90;;;5.80;99.90;;;;;;5074252;28;20176;-76
2022/03/08 09:15:18;;;;;;;1999.90;999.90;;;5.80;99.90;;;;;;5070715;28;20409;-75
2022/03/08 09:17:44;;;;;;;1999.90;999.90;;;5.90;99.90;;;;;;5073302;28;20829;-75
2022/03/08 09:20:10;;;;;;;1999.90;999.90;;;6.00;99.90;;;;;;5073370;28;20406;-76
2022/03/08 09:22:36;;;;;;;1999.90;999.90;;;6.00;99.80;;;;;;5073573;28;20982;-76
2022/03/08 09:25:03;;;;;;;1999.90;999.90;;;6.20;99.70;;;;;;5074352;28;20763;-76
2022/03/08 09:27:30;;;;;;;1999.90;999.90;;;6.30;98.80;;;;;;5073891;28;20519;-76
2022/03/08 09:29:56;;;;;;;1999.90;999.90;;;6.40;98.10;;;;;;5073380;28;20405;-76
2022/03/08 09:32:22;;;;;;;1999.90;999.90;;;6.50;97.30;;;;;;5073746;28;20405;-75
2022/03/08 09:34:47;;;;;;;1999.90;999.90;;;6.60;94.50;;;;;;5073491;28;20405;-75
2022/03/08 09:37:14;;;;;;;1999.90;999.90;;;6.60;95.00;;;;;;5073052;28;20514;-76
2022/03/08 09:39:39;;;;;;;1999.90;999.90;;;6.60;92.50;;;;;;5073634;28;20163;-75
2022/03/08 09:42:05;;;;;;;1999.90;999.90;;;6.60;91.90;;;;;;5073233;28;20848;-76
2022/03/08 09:44:31;;;;;;;1999.90;999.90;;;6.70;91.80;;;;;;5087807;28;20167;-76
2022/03/08 09:46:57;;;;;;;1999.90;999.90;;;6.70;87.80;;;;;;5072930;28;20424;-76
2022/03/08 09:49:22;;;;;;;1999.90;999.90;;;6.70;90.30;;;;;;5073022;28;20197;-76
2022/03/08 09:51:51;;;;;;;1999.90;999.90;;;6.80;88.10;;;;;;5072528;28;20171;-76
2022/03/08 09:54:19;;;;;;;1999.90;999.90;;;6.80;85.00;;;;;;5072073;28;20329;-76
2022/03/08 09:56:44;;;;;;;1999.90;999.90;;;6.90;90.30;;;;;;5072649;28;20486;-76
2022/03/08 09:59:14;;;;;;;1999.90;999.90;;;7.00;85.20;;;;;;5073062;28;20440;-76
2022/03/08 10:01:39;;;;;;;1999.90;999.90;;;7.10;80.60;;;;;;5073016;28;20163;-76
2022/03/08 10:04:07;;;;;;;1999.90;999.90;;;7.10;78.70;;;;;;5072576;28;21063;-76
2022/03/08 10:06:46;;;;;;;1999.90;999.90;;;7.20;75.00;;;;;;5072851;28;20189;-75
2022/03/08 10:09:14;;;;;;;1999.90;999.90;;;7.20;76.10;;;;;;5072924;28;20405;-75
2022/03/08 10:11:40;;;;;;;1999.90;999.90;;;7.20;72.50;;;;;;5072548;28;20409;-76
2022/03/08 10:14:10;;;;;;;1999.90;999.90;;;7.30;71.60;;;;;;5072477;28;20409;-75
2022/03/08 10:16:43;;;;;;;1999.90;999.90;;;7.40;69.20;;;;;;5089742;22;20461;-76
2022/03/08 10:19:10;;;;;;;1999.90;999.90;;;7.50;70.20;;;;;;5071232;28;20469;-77
2022/03/08 10:21:41;;;;;;;1999.90;999.90;;;7.40;67.60;;;;;;5072589;28;20823;-76
2022/03/08 10:24:19;;;;;;;1999.90;999.90;;;7.40;65.20;;;;;;5072731;28;20436;-75
2022/03/08 10:26:55;;;;;;;1999.90;999.90;;;7.60;68.00;;;;;;5072406;28;20926;-75
2022/03/08 10:29:24;;;;;;;1999.90;999.90;;;7.80;69.00;;;;;;5072456;28;20401;-77
2022/03/08 10:32:03;;;;;;;1999.90;999.90;;;7.90;64.70;;;;;;5072504;28;20961;-75
2022/03/08 10:34:30;;;;;;;1999.90;999.90;;;7.80;64.10;;;;;;5072146;28;20392;-76
2022/03/08 10:37:17;;;;;;;1999.90;999.90;;;7.80;62.00;;;;;;5072388;28;20985;-76
2022/03/08 10:40:08;;;;;;;1999.90;999.90;;;7.90;62.50;;;;;;5072335;28;20407;-75
2022/03/08 10:42:40;;;;;;;1999.90;999.90;;;7.90;60.80;;;;;;5072351;28;20952;-75
2022/03/08 10:45:15;;;;;;;1999.90;999.90;;;8.10;65.90;;;;;;5087774;28;20934;-77
2022/03/08 10:47:42;;;;;;;1999.90;999.90;;;8.10;61.50;;;;;;5072103;28;20435;-76
2022/03/08 10:50:09;;;;;;;1999.90;999.90;;;8.00;59.30;;;;;;5072254;28;20408;-75
2022/03/08 10:52:37;;;;;;;1999.90;999.90;;;8.00;58.50;;;;;;5071808;28;20945;-78
2022/03/08 10:55:13;;;;;;;1999.90;999.90;;;8.00;59.40;;;;;;5071805;28;20404;-76
2022/03/08 10:57:41;;;;;;;1999.90;999.90;;;8.00;58.70;;;;;;5071956;28;20449;-75
2022/03/08 11:00:11;;;;;;;1999.90;999.90;;;8.30;61.50;;;;;;5072050;28;20416;-75
2022/03/08 11:02:55;;;;;;;1999.90;999.90;;;8.40;56.30;;;;;;5072094;28;20480;-73
2022/03/08 11:05:26;;;;;;;1999.90;999.90;;;8.60;63.60;;;;;;5071684;28;20430;-75
2022/03/08 11:07:53;;;;;;;1999.90;999.90;;;8.70;57.20;;;;;;5072009;28;20836;-76
2022/03/08 11:10:19;;;;;;;1999.90;999.90;;;8.70;57.50;;;;;;5071948;28;20407;-75
2022/03/08 11:12:46;;;;;;;1999.90;999.90;;;8.70;56.40;;;;;;5071821;28;20429;-75
2022/03/08 11:15:14;;;;;;;1999.90;999.90;;;8.50;52.60;;;;;;5071326;28;20458;-75
2022/03/08 11:17:43;;;;;;;1999.90;999.90;;;8.40;53.60;;;;;;5071693;28;20461;-77
2022/03/08 11:20:10;;;;;;;1999.90;999.90;;;8.60;55.20;;;;;;5072026;28;20425;-78
2022/03/08 11:22:37;;;;;;;1999.90;999.90;;;8.60;54.40;;;;;;5071956;28;20396;-78
2022/03/08 11:25:05;;;;;;;1999.90;999.90;;;8.70;52.00;;;;;;5071469;28;20440;-78
2022/03/08 11:27:32;;;;;;;1999.90;999.90;;;8.60;51.60;;;;;;5071633;28;20425;-75
2022/03/08 11:29:58;;;;;;;1999.90;999.90;;;8.70;50.80;;;;;;5071915;28;20415;-75
2022/03/08 11:32:37;;;;;;;1999.90;999.90;;;8.80;50.50;;;;;;5071771;28;20494;-77
2022/03/08 11:35:33;;;;;;;1999.90;999.90;;;9.00;51.80;;;;;;5071422;28;20410;-75
2022/03/08 11:37:59;;;;;;;1999.90;999.90;;;9.00;49.00;;;;;;5044623;28;20466;-77
2022/03/08 11:40:25;;;;;;;1999.90;999.90;;;8.90;48.60;;;;;;5071635;28;20514;-77
2022/03/08 11:42:53;;;;;;;1999.90;999.90;;;9.10;53.80;;;;;;5071694;28;20197;-75
2022/03/08 11:45:23;;;;;;;1999.90;999.90;;;9.50;51.80;;;;;;5071361;28;20195;-75
2022/03/08 11:48:03;;;;;;;1999.90;999.90;;;9.70;46.80;;;;;;5070681;28;20421;-75
2022/03/08 11:50:32;;;;;;;1999.90;999.90;;;10.00;43.90;;;;;;5070683;28;20399;-75
2022/03/08 11:53:06;;;;;;;1999.90;999.90;;;10.60;48.50;;;;;;5070976;28;20406;-76
2022/03/08 11:55:37;;;;;;;1999.90;999.90;;;11.30;46.80;;;;;;5069319;28;20411;-75
2022/03/08 11:58:10;;;;;;;1999.90;999.90;;;11.20;38.40;;;;;;5070941;28;20436;-76
2022/03/08 12:00:40;;;;;;;1999.90;999.90;;;11.60;44.00;;;;;;5071183;28;20409;-75
2022/03/08 12:03:12;;;;;;;1999.90;999.90;;;11.70;37.50;;;;;;5074241;28;20401;-76
2022/03/08 12:05:40;;;;;;;1999.90;999.90;;;11.60;37.10;;;;;;5075696;28;20397;-77
2022/03/08 12:08:28;;;;;;;1999.90;999.90;;;11.80;36.10;;;;;;5074208;28;20824;-77